Time;durP1;ratioP1;P1;durP2;ratioP2;P2;SDS_P1;SDS_P2;PMS_P1;PMS_P2;Temp;Humidity;BMP_temperature;BMP_pressure;BME280_temperature;BME280_humidity;BME280_pressure;Samples;Min_cycle;Max_cycle;Signal;HPM_P1;HPM_P2
2023/08/22 00:02:08;;;;;;;9.63;3.78;;;;;;;;;;6118902;23;20024;-42
2023/08/22 00:04:37;;;;;;;10.80;3.80;;;;;;;;;;6127308;23;20014;-42
2023/08/22 00:07:05;;;;;;;10.23;3.55;;;;;;;;;;6121579;23;20029;-43
2023/08/22 00:09:34;;;;;;;8.32;3.55;;;;;;;;;;6126982;23;20021;-42
2023/08/22 00:12:03;;;;;;;12.63;3.35;;;;;;;;;;6122839;23;20043;-43
2023/08/22 00:14:31;;;;;;;7.80;3.33;;;;;;;;;;6121324;23;20036;-42
2023/08/22 00:16:59;;;;;;;8.53;3.43;;;;;;;;;;6130488;23;20017;-42
2023/08/22 00:19:26;;;;;;;8.63;3.55;;;;;;;;;;6144873;23;20018;-42
2023/08/22 00:21:57;;;;;;;8.65;3.38;;;;;;;;;;6129337;23;20021;-42
2023/08/22 00:24:24;;;;;;;11.75;4.47;;;;;;;;;;6118109;23;20028;-43
2023/08/22 00:26:55;;;;;;;7.00;3.10;;;;;;;;;;6127677;23;20697;-42
2023/08/22 00:29:23;;;;;;;10.47;3.80;;;;;;;;;;6122050;23;20076;-43
2023/08/22 00:31:50;;;;;;;12.45;4.18;;;;;;;;;;6127691;23;20104;-44
2023/08/22 00:34:18;;;;;;;9.02;3.63;;;;;;;;;;6122579;23;20460;-42
2023/08/22 00:36:46;;;;;;;12.98;4.10;;;;;;;;;;6128261;23;20018;-42
2023/08/22 00:39:13;;;;;;;12.13;3.60;;;;;;;;;;6121732;23;20021;-43
2023/08/22 00:41:41;;;;;;;10.67;3.57;;;;;;;;;;6130645;23;20093;-43
2023/08/22 00:44:10;;;;;;;10.52;4.18;;;;;;;;;;6117113;23;20448;-43
2023/08/22 00:46:38;;;;;;;11.27;3.70;;;;;;;;;;6131131;23;20423;-44
2023/08/22 00:49:08;;;;;;;11.13;3.55;;;;;;;;;;6116838;23;20018;-42
2023/08/22 00:51:36;;;;;;;9.05;3.78;;;;;;;;;;6130886;23;20014;-43
2023/08/22 00:54:04;;;;;;;10.17;3.67;;;;;;;;;;6123302;23;20040;-42
2023/08/22 00:56:32;;;;;;;7.15;3.15;;;;;;;;;;6132041;23;20021;-42
2023/08/22 00:59:05;;;;;;;12.57;3.90;;;;;;;;;;6132369;23;20018;-42
2023/08/22 01:01:34;;;;;;;7.57;3.25;;;;;;;;;;6120915;23;20021;-43
2023/08/22 01:04:02;;;;;;;11.25;3.38;;;;;;;;;;6128491;23;20018;-42
2023/08/22 01:06:34;;;;;;;8.83;2.90;;;;;;;;;;6125071;23;20025;-44
2023/08/22 01:09:05;;;;;;;6.22;2.65;;;;;;;;;;6123898;23;20021;-43
2023/08/22 01:11:36;;;;;;;8.18;3.00;;;;;;;;;;6112239;23;20028;-43
2023/08/22 01:14:08;;;;;;;10.50;2.55;;;;;;;;;;6128955;23;20585;-43
2023/08/22 01:16:37;;;;;;;10.25;3.42;;;;;;;;;;6123973;23;20018;-42
2023/08/22 01:19:05;;;;;;;8.67;3.20;;;;;;;;;;6123062;23;20017;-43
2023/08/22 01:21:34;;;;;;;9.07;2.70;;;;;;;;;;6127122;23;20028;-42
2023/08/22 01:24:03;;;;;;;10.10;3.67;;;;;;;;;;6145312;23;20349;-43
2023/08/22 01:26:31;;;;;;;7.60;3.05;;;;;;;;;;6125771;23;20032;-42
2023/08/22 01:29:03;;;;;;;8.60;3.00;;;;;;;;;;6117853;23;20021;-42
2023/08/22 01:31:33;;;;;;;11.50;3.80;;;;;;;;;;6129931;23;20018;-42
2023/08/22 01:34:04;;;;;;;10.07;4.28;;;;;;;;;;6120783;23;20451;-42
2023/08/22 01:36:31;;;;;;;12.90;3.88;;;;;;;;;;6128950;23;20024;-42
2023/08/22 01:39:06;;;;;;;10.82;4.00;;;;;;;;;;6127807;23;20444;-42
2023/08/22 01:41:35;;;;;;;11.18;3.85;;;;;;;;;;6119419;23;20372;-43
2023/08/22 01:44:04;;;;;;;9.70;3.67;;;;;;;;;;6125959;23;20068;-44
2023/08/22 01:46:31;;;;;;;9.43;4.05;;;;;;;;;;6122424;23;20045;-42
2023/08/22 01:48:59;;;;;;;9.27;4.10;;;;;;;;;;6159401;23;20360;-46
2023/08/22 01:51:27;;;;;;;9.63;4.15;;;;;;;;;;6124312;23;20231;-43
2023/08/22 01:53:55;;;;;;;13.15;4.32;;;;;;;;;;6138402;23;20047;-42
2023/08/22 01:56:22;;;;;;;9.60;4.07;;;;;;;;;;6134268;23;20460;-42
2023/08/22 01:58:51;;;;;;;12.88;3.95;;;;;;;;;;6117015;23;20021;-42
2023/08/22 02:01:19;;;;;;;12.70;4.05;;;;;;;;;;6134597;23;20014;-42
2023/08/22 02:03:47;;;;;;;9.60;4.25;;;;;;;;;;6122618;23;20045;-42
2023/08/22 02:06:14;;;;;;;12.20;4.18;;;;;;;;;;6132389;23;20096;-42
2023/08/22 02:08:42;;;;;;;11.43;4.30;;;;;;;;;;6112993;23;20743;-44
2023/08/22 02:11:10;;;;;;;11.68;4.03;;;;;;;;;;6138473;23;20365;-42
2023/08/22 02:13:38;;;;;;;13.20;5.00;;;;;;;;;;6121703;23;20025;-42
2023/08/22 02:16:07;;;;;;;12.40;4.10;;;;;;;;;;6119445;23;20021;-42
2023/08/22 02:18:34;;;;;;;10.18;4.47;;;;;;;;;;6134623;23;20055;-42
2023/08/22 02:21:02;;;;;;;9.43;3.53;;;;;;;;;;6127551;23;20017;-43
2023/08/22 02:23:32;;;;;;;13.18;4.28;;;;;;;;;;6152054;23;20028;-43
2023/08/22 02:25:59;;;;;;;12.32;4.32;;;;;;;;;;6130296;23;20040;-43
2023/08/22 02:28:27;;;;;;;12.18;4.35;;;;;;;;;;6125921;23;20029;-42
2023/08/22 02:30:55;;;;;;;11.30;4.25;;;;;;;;;;6138647;23;20872;-43
2023/08/22 02:33:24;;;;;;;10.33;4.33;;;;;;;;;;6110772;23;20378;-43
2023/08/22 02:35:52;;;;;;;10.45;4.70;;;;;;;;;;6132215;23;20448;-42
2023/08/22 02:38:20;;;;;;;13.15;4.65;;;;;;;;;;6127107;23;20018;-45
2023/08/22 02:40:48;;;;;;;11.00;3.88;;;;;;;;;;6128943;23;20344;-44
2023/08/22 02:43:15;;;;;;;10.60;4.20;;;;;;;;;;6113434;23;20021;-43
2023/08/22 02:45:44;;;;;;;11.97;3.97;;;;;;;;;;6128490;23;20067;-42
2023/08/22 02:48:12;;;;;;;19.08;4.30;;;;;;;;;;6129795;23;20100;-42
2023/08/22 02:50:41;;;;;;;13.20;3.65;;;;;;;;;;6125233;23;20017;-42
2023/08/22 02:53:14;;;;;;;12.27;4.07;;;;;;;;;;6127685;23;20041;-43
2023/08/22 02:55:47;;;;;;;10.98;4.47;;;;;;;;;;6134029;23;20096;-42
2023/08/22 02:58:15;;;;;;;13.03;4.50;;;;;;;;;;6123352;23;20029;-42
2023/08/22 03:00:44;;;;;;;10.50;4.28;;;;;;;;;;6103458;23;20433;-43
2023/08/22 03:03:12;;;;;;;10.88;4.55;;;;;;;;;;6132236;23;20028;-42
2023/08/22 03:06:00;;;;;;;13.75;4.40;;;;;;;;;;6128677;23;20049;-42
2023/08/22 03:08:28;;;;;;;10.65;3.83;;;;;;;;;;6137307;23;20032;-42
2023/08/22 03:10:59;;;;;;;12.97;4.47;;;;;;;;;;6116364;23;20447;-42
2023/08/22 03:13:28;;;;;;;10.45;4.15;;;;;;;;;;6137329;23;20018;-42
2023/08/22 03:15:59;;;;;;;12.95;4.60;;;;;;;;;;6130463;23;20429;-42
2023/08/22 03:18:27;;;;;;;10.52;4.00;;;;;;;;;;6129428;23;20018;-43
2023/08/22 03:20:56;;;;;;;17.50;3.97;;;;;;;;;;6128126;23;20783;-42
2023/08/22 03:23:25;;;;;;;13.40;3.80;;;;;;;;;;6129507;23;20324;-42
2023/08/22 03:25:56;;;;;;;10.45;4.28;;;;;;;;;;6128601;23;20032;-42
2023/08/22 03:28:24;;;;;;;10.93;4.53;;;;;;;;;;6124694;23;20041;-42
2023/08/22 03:30:56;;;;;;;11.48;3.85;;;;;;;;;;6134375;23;20036;-42
2023/08/22 03:33:24;;;;;;;13.07;4.57;;;;;;;;;;6126956;23;20052;-42
2023/08/22 03:35:52;;;;;;;12.37;4.90;;;;;;;;;;6129069;23;20056;-42
2023/08/22 03:38:20;;;;;;;13.15;3.92;;;;;;;;;;6125944;23;20021;-42
2023/08/22 03:40:49;;;;;;;11.00;3.63;;;;;;;;;;6128091;23;20017;-43
2023/08/22 03:43:18;;;;;;;11.50;3.63;;;;;;;;;;6131991;23;20017;-43
2023/08/22 03:45:46;;;;;;;9.90;4.05;;;;;;;;;;6128913;23;20022;-42
2023/08/22 03:48:14;;;;;;;9.07;3.80;;;;;;;;;;6132186;23;20025;-43
2023/08/22 03:50:42;;;;;;;13.65;4.35;;;;;;;;;;6136714;23;20360;-42
2023/08/22 03:53:14;;;;;;;9.73;3.30;;;;;;;;;;6135209;23;20496;-42
2023/08/22 03:55:42;;;;;;;8.93;3.88;;;;;;;;;;6123457;23;20017;-42
2023/08/22 03:58:11;;;;;;;10.95;3.90;;;;;;;;;;6111361;23;20018;-42
2023/08/22 04:00:38;;;;;;;10.00;3.83;;;;;;;;;;6129027;23;20032;-41
2023/08/22 04:03:06;;;;;;;10.63;3.88;;;;;;;;;;6133266;23;20212;-43
2023/08/22 04:05:34;;;;;;;13.07;4.10;;;;;;;;;;6120324;23;20317;-42
2023/08/22 04:08:02;;;;;;;11.93;3.97;;;;;;;;;;6135331;23;20013;-42
2023/08/22 04:10:29;;;;;;;10.55;4.00;;;;;;;;;;6117558;23;20382;-42
2023/08/22 04:12:57;;;;;;;14.33;3.80;;;;;;;;;;6128532;23;20026;-43
2023/08/22 04:15:30;;;;;;;13.15;4.15;;;;;;;;;;6125084;23;20014;-44
2023/08/22 04:18:03;;;;;;;11.10;4.43;;;;;;;;;;6139667;23;20024;-43
2023/08/22 04:20:31;;;;;;;10.73;4.10;;;;;;;;;;6133434;23;20013;-43
2023/08/22 04:22:59;;;;;;;9.98;4.25;;;;;;;;;;6125979;23;20048;-42
2023/08/22 04:25:27;;;;;;;13.33;4.00;;;;;;;;;;6130849;23;20018;-42
2023/08/22 04:27:55;;;;;;;11.85;3.70;;;;;;;;;;6124160;23;20014;-42
2023/08/22 04:30:23;;;;;;;8.75;3.28;;;;;;;;;;6132161;23;20060;-42
2023/08/22 04:32:53;;;;;;;10.10;4.30;;;;;;;;;;6122704;23;20424;-44
2023/08/22 04:35:20;;;;;;;10.25;3.75;;;;;;;;;;6131084;23;20019;-42
2023/08/22 04:37:48;;;;;;;11.23;4.30;;;;;;;;;;6127830;23;20018;-42
2023/08/22 04:40:16;;;;;;;10.63;3.33;;;;;;;;;;6130613;23;20021;-42
2023/08/22 04:42:43;;;;;;;11.15;3.97;;;;;;;;;;6128449;23;20020;-42
2023/08/22 04:45:11;;;;;;;9.00;3.58;;;;;;;;;;6124406;23;20060;-43
2023/08/22 04:47:43;;;;;;;14.30;4.03;;;;;;;;;;6127565;23;20021;-42
2023/08/22 04:50:15;;;;;;;11.97;4.13;;;;;;;;;;6133338;23;20017;-42
2023/08/22 04:52:43;;;;;;;9.63;3.90;;;;;;;;;;6115645;23;20441;-44
2023/08/22 04:55:10;;;;;;;11.20;4.00;;;;;;;;;;6131733;23;20021;-47
2023/08/22 04:57:42;;;;;;;10.35;3.83;;;;;;;;;;6116106;23;20504;-43
2023/08/22 05:00:10;;;;;;;8.52;3.70;;;;;;;;;;6131596;23;20020;-42
2023/08/22 05:02:38;;;;;;;11.90;3.70;;;;;;;;;;6116164;23;20025;-45
2023/08/22 05:05:09;;;;;;;9.88;3.95;;;;;;;;;;6124713;23;20512;-42
2023/08/22 05:07:39;;;;;;;10.30;3.47;;;;;;;;;;6126297;23;20017;-43
2023/08/22 05:10:08;;;;;;;13.63;3.28;;;;;;;;;;6126182;23;20020;-41
2023/08/22 05:12:37;;;;;;;10.32;3.85;;;;;;;;;;6129322;23;20589;-42
2023/08/22 05:15:05;;;;;;;8.60;3.00;;;;;;;;;;6117273;23;20024;-42
2023/08/22 05:17:33;;;;;;;11.07;3.72;;;;;;;;;;6131469;23;20013;-41
2023/08/22 05:20:01;;;;;;;9.85;3.60;;;;;;;;;;6116568;23;20322;-43
2023/08/22 05:22:29;;;;;;;7.30;2.75;;;;;;;;;;6127596;23;20458;-44
2023/08/22 05:24:58;;;;;;;8.30;2.85;;;;;;;;;;6125705;23;20014;-41
2023/08/22 05:27:26;;;;;;;8.20;2.80;;;;;;;;;;6128560;23;20344;-41
2023/08/22 05:29:54;;;;;;;9.05;2.80;;;;;;;;;;6118409;23;20018;-41
2023/08/22 05:32:22;;;;;;;10.05;3.08;;;;;;;;;;6131138;23;20013;-42
2023/08/22 05:34:51;;;;;;;10.15;3.75;;;;;;;;;;6119463;23;20364;-41
2023/08/22 05:37:20;;;;;;;11.45;3.63;;;;;;;;;;6126349;23;20028;-44
2023/08/22 05:39:48;;;;;;;11.33;3.10;;;;;;;;;;6126694;23;20049;-42
2023/08/22 05:42:17;;;;;;;10.05;3.65;;;;;;;;;;6124456;23;20018;-43
2023/08/22 05:44:45;;;;;;;8.95;3.10;;;;;;;;;;6123195;23;20014;-42
2023/08/22 05:47:12;;;;;;;12.05;3.30;;;;;;;;;;6127561;23;20068;-41
2023/08/22 05:49:43;;;;;;;10.60;3.17;;;;;;;;;;6144696;23;20025;-43
2023/08/22 05:52:10;;;;;;;9.27;3.33;;;;;;;;;;6125473;23;20026;-46
2023/08/22 05:54:38;;;;;;;7.93;3.50;;;;;;;;;;6120773;23;20023;-43
2023/08/22 05:57:06;;;;;;;11.25;2.85;;;;;;;;;;6129274;23;20640;-42
2023/08/22 05:59:35;;;;;;;10.48;3.15;;;;;;;;;;6112317;23;20049;-41
2023/08/22 06:02:08;;;;;;;8.80;3.20;;;;;;;;;;6125996;23;20512;-42
2023/08/22 06:04:36;;;;;;;10.03;3.93;;;;;;;;;;6126184;23;20013;-42
2023/08/22 06:07:04;;;;;;;11.93;3.47;;;;;;;;;;6124810;23;20112;-42
2023/08/22 06:09:32;;;;;;;11.80;2.97;;;;;;;;;;6129218;23;20396;-41
2023/08/22 06:11:59;;;;;;;7.80;2.85;;;;;;;;;;6121975;23;20021;-41
2023/08/22 06:14:28;;;;;;;10.88;3.03;;;;;;;;;;6127813;23;20028;-43
2023/08/22 06:16:58;;;;;;;7.93;2.80;;;;;;;;;;6112592;23;20052;-41
2023/08/22 06:19:25;;;;;;;8.52;3.17;;;;;;;;;;6127910;23;20021;-41
2023/08/22 06:21:54;;;;;;;9.10;3.45;;;;;;;;;;6115386;23;20024;-43
2023/08/22 06:24:22;;;;;;;10.10;3.17;;;;;;;;;;6124781;23;20021;-41
2023/08/22 06:27:10;;;;;;;8.27;3.33;;;;;;;;;;6129586;23;20025;-49
2023/08/22 06:29:38;;;;;;;8.07;3.00;;;;;;;;;;6118244;23;20320;-42
2023/08/22 06:32:08;;;;;;;8.20;2.92;;;;;;;;;;6129147;23;20021;-42
2023/08/22 06:34:35;;;;;;;8.57;2.60;;;;;;;;;;6123309;23;20021;-41
2023/08/22 06:37:05;;;;;;;7.88;2.40;;;;;;;;;;6125759;23;20410;-44
2023/08/22 06:39:33;;;;;;;7.55;2.50;;;;;;;;;;6120057;23;20022;-45
2023/08/22 06:42:00;;;;;;;11.17;3.77;;;;;;;;;;6122070;23;20028;-47
2023/08/22 06:44:29;;;;;;;10.25;2.85;;;;;;;;;;6124108;23;20028;-43
2023/08/22 06:46:58;;;;;;;12.57;3.30;;;;;;;;;;6128436;23;20029;-42
2023/08/22 06:49:27;;;;;;;10.10;3.10;;;;;;;;;;6126289;23;20025;-44
2023/08/22 06:51:55;;;;;;;11.85;3.03;;;;;;;;;;6123612;23;20441;-43
2023/08/22 06:54:25;;;;;;;10.27;3.00;;;;;;;;;;6119954;23;20208;-41
2023/08/22 06:56:53;;;;;;;8.95;2.80;;;;;;;;;;6125667;23;20044;-43
2023/08/22 06:59:20;;;;;;;9.15;2.97;;;;;;;;;;6118157;23;20025;-41
2023/08/22 07:01:48;;;;;;;7.22;2.35;;;;;;;;;;6128543;23;20013;-41
2023/08/22 07:04:16;;;;;;;9.23;3.33;;;;;;;;;;6115768;23;20017;-44
2023/08/22 07:06:45;;;;;;;9.13;2.97;;;;;;;;;;6128010;23;20026;-42
2023/08/22 07:09:14;;;;;;;11.82;3.35;;;;;;;;;;6126007;23;20021;-43
2023/08/22 07:11:44;;;;;;;8.38;3.17;;;;;;;;;;6117443;23;20018;-42
2023/08/22 07:14:12;;;;;;;8.95;3.00;;;;;;;;;;6129559;23;20017;-43
2023/08/22 07:16:40;;;;;;;7.05;2.70;;;;;;;;;;6121276;23;20014;-42
2023/08/22 07:19:07;;;;;;;9.17;2.73;;;;;;;;;;6124003;23;20013;-44
2023/08/22 07:21:35;;;;;;;8.15;2.20;;;;;;;;;;6114799;23;20312;-42
2023/08/22 07:24:05;;;;;;;8.85;3.00;;;;;;;;;;6124785;23;20018;-46
2023/08/22 07:26:33;;;;;;;8.85;3.20;;;;;;;;;;6117857;23;20021;-42
2023/08/22 07:29:00;;;;;;;8.88;2.50;;;;;;;;;;6130405;23;20068;-43
2023/08/22 07:31:28;;;;;;;6.30;2.70;;;;;;;;;;6118458;23;20018;-41
2023/08/22 07:33:56;;;;;;;9.73;2.20;;;;;;;;;;6128780;23;20017;-41
2023/08/22 07:36:24;;;;;;;6.80;2.15;;;;;;;;;;6122812;23;20444;-43
2023/08/22 07:38:51;;;;;;;9.07;2.42;;;;;;;;;;6121111;23;20025;-42
2023/08/22 07:41:20;;;;;;;6.30;2.22;;;;;;;;;;6115865;23;20017;-42
2023/08/22 07:43:53;;;;;;;7.87;2.20;;;;;;;;;;6126725;23;20013;-43
2023/08/22 07:46:21;;;;;;;8.73;2.85;;;;;;;;;;6120333;23;20404;-43
2023/08/22 07:48:48;;;;;;;7.72;1.77;;;;;;;;;;6123718;23;20068;-42
2023/08/22 07:51:16;;;;;;;5.93;2.20;;;;;;;;;;6123109;23;20029;-41
2023/08/22 07:53:44;;;;;;;7.65;2.17;;;;;;;;;;6126857;23;20471;-42
2023/08/22 07:56:12;;;;;;;5.43;1.80;;;;;;;;;;6123358;23;20022;-43
2023/08/22 07:58:41;;;;;;;7.88;1.75;;;;;;;;;;6128444;23;20027;-42
2023/08/22 08:01:09;;;;;;;6.45;1.50;;;;;;;;;;6123386;23;20150;-45
2023/08/22 08:03:39;;;;;;;7.05;1.83;;;;;;;;;;6121969;23;20076;-43
2023/08/22 08:06:07;;;;;;;6.53;1.90;;;;;;;;;;6129907;23;20086;-43
2023/08/22 08:08:35;;;;;;;7.37;1.80;;;;;;;;;;6120227;23;20503;-43
2023/08/22 08:11:03;;;;;;;6.20;2.00;;;;;;;;;;6125284;23;20032;-42
2023/08/22 08:13:30;;;;;;;6.60;1.52;;;;;;;;;;6102879;23;20680;-47
2023/08/22 08:16:03;;;;;;;7.57;1.85;;;;;;;;;;6120665;23;20103;-44
2023/08/22 08:18:34;;;;;;;5.55;1.60;;;;;;;;;;6140753;23;20017;-42
2023/08/22 08:21:03;;;;;;;8.53;2.10;;;;;;;;;;6150178;23;20360;-42
2023/08/22 08:23:31;;;;;;;4.85;1.85;;;;;;;;;;6111165;23;20495;-42
2023/08/22 08:25:59;;;;;;;6.05;1.58;;;;;;;;;;6125528;23;20109;-42
2023/08/22 08:28:37;;;;;;;5.55;1.40;;;;;;;;;;6105193;23;20025;-42
2023/08/22 08:31:06;;;;;;;4.90;1.00;;;;;;;;;;6093721;23;20037;-44
2023/08/22 08:33:34;;;;;;;5.93;1.50;;;;;;;;;;6111142;23;20496;-42
2023/08/22 08:36:04;;;;;;;6.45;1.90;;;;;;;;;;6106943;23;20420;-42
2023/08/22 08:38:32;;;;;;;6.95;1.92;;;;;;;;;;6107369;23;20021;-42
2023/08/22 08:41:01;;;;;;;5.60;1.80;;;;;;;;;;6087293;23;20448;-42
2023/08/22 08:43:30;;;;;;;6.10;1.55;;;;;;;;;;6111489;23;20021;-43
2023/08/22 08:45:58;;;;;;;4.53;1.40;;;;;;;;;;6117340;23;20022;-42
2023/08/22 08:48:28;;;;;;;6.72;1.55;;;;;;;;;;6109944;23;20021;-42
2023/08/22 08:50:57;;;;;;;6.43;1.23;;;;;;;;;;6113616;23;20021;-43
2023/08/22 08:53:24;;;;;;;4.45;1.10;;;;;;;;;;6122521;23;20444;-42
2023/08/22 08:55:52;;;;;;;7.10;1.50;;;;;;;;;;6107753;23;20017;-43
2023/08/22 08:58:24;;;;;;;7.60;1.87;;;;;;;;;;6115800;23;20124;-44
2023/08/22 09:00:52;;;;;;;6.18;1.10;;;;;;;;;;6104735;23;20010;-46
2023/08/22 09:03:19;;;;;;;4.82;1.30;;;;;;;;;;6117350;23;20635;-43
2023/08/22 09:05:53;;;;;;;6.65;1.20;;;;;;;;;;6112885;23;20022;-44
2023/08/22 09:08:21;;;;;;;7.07;1.20;;;;;;;;;;6114177;23;20017;-42
2023/08/22 09:10:50;;;;;;;6.10;1.40;;;;;;;;;;6137065;23;20024;-44
2023/08/22 09:13:26;;;;;;;5.35;1.00;;;;;;;;;;6112463;23;20200;-43
2023/08/22 09:16:08;;;;;;;5.88;1.20;;;;;;;;;;6122504;23;20064;-43
2023/08/22 09:18:41;;;;;;;4.53;1.02;;;;;;;;;;6102875;23;20017;-44
2023/08/22 09:21:10;;;;;;;3.85;1.30;;;;;;;;;;6121453;23;20015;-44
2023/08/22 09:23:41;;;;;;;5.07;1.00;;;;;;;;;;6105161;23;20060;-43
2023/08/22 09:26:11;;;;;;;5.88;1.52;;;;;;;;;;6132232;23;20991;-44
2023/08/22 09:28:39;;;;;;;6.32;1.30;;;;;;;;;;6115134;23;20022;-42
2023/08/22 09:31:07;;;;;;;4.47;1.10;;;;;;;;;;6111923;23;20105;-43
2023/08/22 09:33:44;;;;;;;3.22;0.90;;;;;;;;;;6119189;23;20313;-43
2023/08/22 09:36:13;;;;;;;3.90;1.00;;;;;;;;;;6109757;23;20087;-43
2023/08/22 09:39:01;;;;;;;4.80;1.23;;;;;;;;;;6106622;23;20847;-43
2023/08/22 09:41:29;;;;;;;6.28;1.30;;;;;;;;;;6114385;23;20018;-43
2023/08/22 09:44:02;;;;;;;3.50;1.08;;;;;;;;;;6108243;23;20014;-43
2023/08/22 09:46:30;;;;;;;4.85;1.55;;;;;;;;;;6121564;23;20092;-45
2023/08/22 09:49:00;;;;;;;4.07;1.10;;;;;;;;;;6105133;23;20100;-43
2023/08/22 09:51:31;;;;;;;4.35;1.00;;;;;;;;;;6113228;23;20465;-43
2023/08/22 09:54:03;;;;;;;5.22;1.10;;;;;;;;;;6118243;23;20553;-43
2023/08/22 09:56:34;;;;;;;4.57;0.82;;;;;;;;;;6122537;23;20826;-43
2023/08/22 09:59:02;;;;;;;4.40;1.30;;;;;;;;;;6100051;23;20018;-46
2023/08/22 10:01:30;;;;;;;4.37;1.23;;;;;;;;;;6118313;23;20017;-43
2023/08/22 10:03:58;;;;;;;4.88;1.52;;;;;;;;;;6112529;23;20421;-43
2023/08/22 10:06:28;;;;;;;6.85;1.38;;;;;;;;;;6124544;23;20025;-43
2023/08/22 10:09:14;;;;;;;4.95;0.95;;;;;;;;;;6108846;23;20097;-43
2023/08/22 10:11:43;;;;;;;5.68;1.13;;;;;;;;;;6113145;23;20410;-43
2023/08/22 10:14:13;;;;;;;5.67;1.00;;;;;;;;;;6112113;23;20439;-43
2023/08/22 10:16:41;;;;;;;5.85;1.80;;;;;;;;;;6098300;23;20878;-44
2023/08/22 10:19:09;;;;;;;7.38;1.88;;;;;;;;;;6113356;23;20013;-47
2023/08/22 10:21:43;;;;;;;5.15;1.10;;;;;;;;;;6106463;23;20018;-42
2023/08/22 10:24:29;;;;;;;4.22;1.30;;;;;;;;;;6117390;23;20021;-45
2023/08/22 10:27:02;;;;;;;6.20;1.50;;;;;;;;;;6117750;23;20017;-43
2023/08/22 10:29:34;;;;;;;6.22;1.70;;;;;;;;;;6107585;23;20018;-44
2023/08/22 10:32:21;;;;;;;6.60;1.55;;;;;;;;;;6108543;23;20504;-43
2023/08/22 10:35:06;;;;;;;6.75;1.50;;;;;;;;;;6111006;23;20405;-43
2023/08/22 10:37:44;;;;;;;7.18;1.80;;;;;;;;;;6118935;23;20363;-43
2023/08/22 10:40:20;;;;;;;6.43;1.30;;;;;;;;;;6110327;23;20032;-43
2023/08/22 10:42:53;;;;;;;6.72;1.35;;;;;;;;;;6120750;23;20594;-43
2023/08/22 10:45:21;;;;;;;5.10;1.00;;;;;;;;;;6116434;23;20021;-44
2023/08/22 10:47:49;;;;;;;6.03;1.60;;;;;;;;;;6106430;23;20396;-44
2023/08/22 10:50:17;;;;;;;6.00;1.70;;;;;;;;;;6121164;23;20028;-45
2023/08/22 10:52:45;;;;;;;4.57;1.27;;;;;;;;;;6107637;23;20021;-47
2023/08/22 10:55:20;;;;;;;5.60;1.42;;;;;;;;;;6119558;23;20108;-45
2023/08/22 10:57:48;;;;;;;5.22;1.20;;;;;;;;;;6110528;23;20078;-45
2023/08/22 11:00:21;;;;;;;5.55;1.35;;;;;;;;;;6116994;23;20096;-43
2023/08/22 11:02:50;;;;;;;5.03;1.40;;;;;;;;;;6107370;23;20115;-45
2023/08/22 11:05:19;;;;;;;5.90;1.70;;;;;;;;;;6112780;23;20028;-45
2023/08/22 11:07:48;;;;;;;6.70;1.50;;;;;;;;;;6116628;23;20028;-45
2023/08/22 11:10:19;;;;;;;7.05;1.95;;;;;;;;;;6121039;23;20027;-45
2023/08/22 11:12:47;;;;;;;6.10;1.55;;;;;;;;;;6122468;23;20039;-45
2023/08/22 11:15:15;;;;;;;7.95;2.05;;;;;;;;;;6101764;23;20079;-45
2023/08/22 11:17:43;;;;;;;6.77;1.43;;;;;;;;;;6103540;23;20024;-48
2023/08/22 11:20:12;;;;;;;5.78;1.05;;;;;;;;;;6102776;23;20706;-49
2023/08/22 11:22:40;;;;;;;5.60;1.40;;;;;;;;;;6099479;23;20420;-46
2023/08/22 11:25:08;;;;;;;5.75;1.40;;;;;;;;;;6099390;23;20361;-43
2023/08/22 11:27:38;;;;;;;8.88;1.33;;;;;;;;;;6109682;23;20014;-43
2023/08/22 11:30:07;;;;;;;5.27;1.47;;;;;;;;;;6099565;23;20025;-43
2023/08/22 11:32:35;;;;;;;8.15;1.60;;;;;;;;;;6108337;23;20456;-45
2023/08/22 11:35:04;;;;;;;6.53;1.88;;;;;;;;;;6101495;23;20025;-44
2023/08/22 11:37:32;;;;;;;6.03;1.60;;;;;;;;;;6109919;23;20044;-43
2023/08/22 11:40:00;;;;;;;8.48;1.17;;;;;;;;;;6121433;23;20025;-43
2023/08/22 11:42:33;;;;;;;4.13;1.17;;;;;;;;;;6106734;23;20392;-44
2023/08/22 11:45:08;;;;;;;5.88;1.55;;;;;;;;;;6111706;23;20498;-43
2023/08/22 11:47:36;;;;;;;5.68;1.70;;;;;;;;;;6096269;23;20021;-44
2023/08/22 11:50:04;;;;;;;5.50;1.60;;;;;;;;;;6102345;23;20100;-43
2023/08/22 11:52:32;;;;;;;8.25;1.30;;;;;;;;;;6095905;23;20096;-43
2023/08/22 11:55:04;;;;;;;5.00;0.87;;;;;;;;;;6116001;23;20109;-46
2023/08/22 11:57:32;;;;;;;7.32;1.10;;;;;;;;;;6105233;23;20681;-44
2023/08/22 12:00:00;;;;;;;6.35;1.42;;;;;;;;;;6106225;23;20021;-43
2023/08/22 12:02:30;;;;;;;7.22;1.58;;;;;;;;;;6100839;23;20032;-45
2023/08/22 12:04:58;;;;;;;6.38;1.60;;;;;;;;;;6115523;23;20036;-44
2023/08/22 12:07:26;;;;;;;5.60;1.00;;;;;;;;;;6106429;23;20103;-44
2023/08/22 12:09:58;;;;;;;8.82;1.40;;;;;;;;;;6108102;23;20013;-44
2023/08/22 12:12:26;;;;;;;7.45;1.70;;;;;;;;;;6104494;23;20408;-43
2023/08/22 12:14:54;;;;;;;8.48;1.70;;;;;;;;;;6111062;23;20028;-43
2023/08/22 12:17:22;;;;;;;7.63;1.50;;;;;;;;;;6109068;23;20488;-43
2023/08/22 12:19:51;;;;;;;5.83;1.37;;;;;;;;;;6097959;23;20422;-42
2023/08/22 12:22:18;;;;;;;6.00;1.65;;;;;;;;;;6115593;23;20018;-47
2023/08/22 12:24:49;;;;;;;6.82;1.67;;;;;;;;;;6103782;23;20021;-46
2023/08/22 12:27:16;;;;;;;5.13;1.23;;;;;;;;;;6115885;23;20019;-45
2023/08/22 12:29:45;;;;;;;6.00;1.80;;;;;;;;;;6094573;23;20014;-44
2023/08/22 12:32:13;;;;;;;7.17;1.57;;;;;;;;;;6115492;23;20380;-44
2023/08/22 12:34:41;;;;;;;8.32;1.90;;;;;;;;;;6102047;23;20093;-45
2023/08/22 12:37:10;;;;;;;6.55;1.63;;;;;;;;;;6116794;23;20040;-43
2023/08/22 12:39:38;;;;;;;7.63;1.75;;;;;;;;;;6086652;23;20026;-46
2023/08/22 12:42:05;;;;;;;8.35;2.00;;;;;;;;;;6112553;23;20025;-45
2023/08/22 12:44:33;;;;;;;10.07;1.80;;;;;;;;;;6106664;23;20598;-44
2023/08/22 12:47:01;;;;;;;5.38;1.10;;;;;;;;;;6132939;23;20080;-47
2023/08/22 12:49:29;;;;;;;6.72;1.00;;;;;;;;;;6075123;23;20220;-43
2023/08/22 12:51:56;;;;;;;6.53;1.50;;;;;;;;;;6109181;23;20041;-43
2023/08/22 12:54:26;;;;;;;6.13;1.40;;;;;;;;;;6097525;23;20021;-46
2023/08/22 12:56:56;;;;;;;5.60;1.67;;;;;;;;;;6112984;23;20017;-44
2023/08/22 12:59:27;;;;;;;8.13;1.42;;;;;;;;;;6101454;23;20025;-43
2023/08/22 13:01:56;;;;;;;8.98;1.70;;;;;;;;;;6114946;23;20086;-43
2023/08/22 13:04:25;;;;;;;8.23;2.30;;;;;;;;;;6100991;23;20021;-42
2023/08/22 13:06:53;;;;;;;5.65;1.10;;;;;;;;;;6107868;23;20100;-43
2023/08/22 13:09:21;;;;;;;6.70;1.80;;;;;;;;;;6111839;23;20040;-45
2023/08/22 13:11:50;;;;;;;6.68;1.55;;;;;;;;;;6124536;23;20400;-44
2023/08/22 13:14:18;;;;;;;6.82;1.33;;;;;;;;;;6116792;23;20022;-45
2023/08/22 13:16:46;;;;;;;11.82;1.90;;;;;;;;;;6099518;23;20636;-43
2023/08/22 13:19:13;;;;;;;7.65;2.10;;;;;;;;;;6106288;23;20080;-44
2023/08/22 13:22:01;;;;;;;6.03;1.30;;;;;;;;;;6104330;23;20528;-43
2023/08/22 13:24:31;;;;;;;5.90;1.25;;;;;;;;;;6109316;23;20021;-48
2023/08/22 13:27:00;;;;;;;5.88;1.45;;;;;;;;;;6107211;23;20048;-44
2023/08/22 13:29:28;;;;;;;8.05;1.52;;;;;;;;;;6100073;23;20024;-44
2023/08/22 13:31:58;;;;;;;4.85;1.17;;;;;;;;;;6110478;23;20065;-47
2023/08/22 13:34:25;;;;;;;7.07;1.37;;;;;;;;;;6105808;23;20060;-44
2023/08/22 13:36:53;;;;;;;6.13;1.30;;;;;;;;;;6114966;23;20419;-43
2023/08/22 13:39:21;;;;;;;4.75;1.88;;;;;;;;;;6091895;23;20029;-44
2023/08/22 13:41:48;;;;;;;4.63;1.63;;;;;;;;;;6113140;23;20105;-45
2023/08/22 13:44:18;;;;;;;7.07;1.80;;;;;;;;;;6109883;23;20022;-44
2023/08/22 13:46:45;;;;;;;5.17;1.70;;;;;;;;;;6111608;23;20084;-44
2023/08/22 13:49:13;;;;;;;6.13;1.58;;;;;;;;;;6101033;23;20440;-44
2023/08/22 13:51:41;;;;;;;5.68;1.15;;;;;;;;;;6110372;23;20064;-44
2023/08/22 13:54:09;;;;;;;5.40;1.13;;;;;;;;;;6102920;23;20025;-44
2023/08/22 13:56:36;;;;;;;4.68;1.10;;;;;;;;;;6116442;23;20021;-45
2023/08/22 13:59:04;;;;;;;3.80;0.90;;;;;;;;;;6094490;23;20018;-47
2023/08/22 14:01:33;;;;;;;4.90;1.00;;;;;;;;;;6112171;23;20044;-46
2023/08/22 14:04:01;;;;;;;4.88;1.00;;;;;;;;;;6107607;23;20341;-45
2023/08/22 14:06:29;;;;;;;4.75;1.40;;;;;;;;;;6111075;23;20671;-46
2023/08/22 14:08:56;;;;;;;4.40;1.15;;;;;;;;;;6091172;23;20060;-46
2023/08/22 14:11:27;;;;;;;4.50;1.30;;;;;;;;;;6112790;23;20018;-44
2023/08/22 14:13:58;;;;;;;5.88;1.42;;;;;;;;;;6108040;23;20022;-44
2023/08/22 14:16:26;;;;;;;4.75;1.23;;;;;;;;;;6100328;23;20486;-44
2023/08/22 14:18:57;;;;;;;5.10;1.60;;;;;;;;;;6102268;23;20021;-46
2023/08/22 14:21:24;;;;;;;4.53;1.25;;;;;;;;;;6093750;23;20044;-48
2023/08/22 14:24:11;;;;;;;4.90;1.10;;;;;;;;;;6113869;23;20261;-48
2023/08/22 14:26:39;;;;;;;4.40;1.00;;;;;;;;;;6123685;23;20435;-46
2023/08/22 14:29:07;;;;;;;5.22;1.50;;;;;;;;;;6101824;23;20117;-45
2023/08/22 14:31:34;;;;;;;5.07;1.25;;;;;;;;;;6090213;23;20023;-45
2023/08/22 14:34:04;;;;;;;4.82;1.48;;;;;;;;;;6114539;23;20021;-43
2023/08/22 14:36:34;;;;;;;4.97;1.50;;;;;;;;;;6108854;23;20484;-46
2023/08/22 14:39:07;;;;;;;5.90;1.15;;;;;;;;;;6094590;23;20036;-45
2023/08/22 14:41:37;;;;;;;4.03;1.10;;;;;;;;;;6086200;23;20271;-44
2023/08/22 14:44:05;;;;;;;5.38;1.50;;;;;;;;;;6116623;23;20033;-44
2023/08/22 14:46:32;;;;;;;5.65;1.75;;;;;;;;;;6130547;23;20025;-43
2023/08/22 14:49:13;;;;;;;5.07;1.40;;;;;;;;;;6092006;23;20033;-43
2023/08/22 14:52:00;;;;;;;5.97;1.60;;;;;;;;;;6111064;23;20204;-45